createdAt,value
2023-07-25T00:01:06.879Z,100317.91
2023-07-25T00:03:34.061Z,100310.69
2023-07-25T00:06:04.650Z,100320.00
2023-07-25T00:08:33.254Z,100318.78
2023-07-25T00:11:01.703Z,100323.44
2023-07-25T00:13:29.596Z,100326.22
2023-07-25T00:15:56.602Z,100329.22
2023-07-25T00:18:23.586Z,100332.00
2023-07-25T00:20:50.483Z,100330.09
2023-07-25T00:23:17.420Z,100328.59
2023-07-25T00:25:44.334Z,100325.63
2023-07-25T00:28:11.253Z,100328.59
2023-07-25T00:30:40.230Z,100328.22
2023-07-25T00:33:07.708Z,100326.94
2023-07-25T00:35:34.797Z,100324.38
2023-07-25T00:38:05.673Z,100323.06
2023-07-25T00:40:32.646Z,100314.97
2023-07-25T00:43:01.137Z,100309.91
2023-07-25T00:45:28.176Z,100316.28
2023-07-25T00:47:55.165Z,100321.00
2023-07-25T00:50:22.556Z,100330.38
2023-07-25T00:52:49.560Z,100327.38
2023-07-25T00:55:16.876Z,100325.94
2023-07-25T00:57:43.738Z,100325.94
2023-07-25T01:00:11.283Z,100318.69
2023-07-25T01:02:39.341Z,100324.22
2023-07-25T01:05:06.445Z,100318.69
2023-07-25T01:07:34.851Z,100320.63
2023-07-25T01:10:01.826Z,100319.78
2023-07-25T01:12:28.692Z,100318.06
2023-07-25T01:14:55.898Z,100316.34
2023-07-25T01:17:25.812Z,100315.06
2023-07-25T01:19:54.573Z,100319.78
2023-07-25T01:22:26.949Z,100311.47
2023-07-25T01:24:56.444Z,100311.47
2023-07-25T01:27:23.647Z,100310.81
2023-07-25T01:29:50.761Z,100310.81
2023-07-25T01:32:17.765Z,100306.38
2023-07-25T01:34:44.747Z,100298.88
2023-07-25T01:37:13.106Z,100299.72
2023-07-25T01:39:40.107Z,100301.88
2023-07-25T01:42:07.371Z,100301.88
2023-07-25T01:44:34.301Z,100300.19
2023-07-25T01:47:01.196Z,100299.09
2023-07-25T01:49:28.058Z,100306.59
2023-07-25T01:51:55.020Z,100304.88
2023-07-25T01:54:21.964Z,100302.97
2023-07-25T01:56:50.999Z,100292.94
2023-07-25T01:59:19.444Z,100305.13
2023-07-25T02:01:46.758Z,100295.72
2023-07-25T02:04:13.708Z,100289.34
2023-07-25T02:06:40.753Z,100281.25
2023-07-25T02:09:07.660Z,100284.03
2023-07-25T02:11:34.907Z,100280.19
2023-07-25T02:14:01.962Z,100282.34
2023-07-25T02:16:30.129Z,100286.78
2023-07-25T02:18:57.250Z,100286.19
2023-07-25T02:21:24.323Z,100280.63
2023-07-25T02:23:51.221Z,100280.63
2023-07-25T02:26:18.532Z,100280.63
2023-07-25T02:28:45.412Z,100273.38
2023-07-25T02:31:12.430Z,100277.25
2023-07-25T02:33:40.292Z,100279.78
2023-07-25T02:36:07.511Z,100278.09
2023-07-25T02:38:34.428Z,100276.16
2023-07-25T02:41:01.354Z,100273.38
2023-07-25T02:43:28.279Z,100277.25
2023-07-25T02:45:55.200Z,100277.25
2023-07-25T02:48:22.298Z,100275.53
2023-07-25T02:50:49.211Z,100280.25
2023-07-25T02:53:16.182Z,100279.41
2023-07-25T02:55:43.219Z,100282.19
2023-07-25T02:58:10.192Z,100280.47
2023-07-25T03:00:37.185Z,100277.69
2023-07-25T03:03:04.093Z,100276.88
2023-07-25T03:05:31.137Z,100274.31
2023-07-25T03:07:58.417Z,100273.47
2023-07-25T03:10:25.407Z,100277.28
2023-07-25T03:12:53.852Z,100281.78
2023-07-25T03:15:21.494Z,100291.97
2023-07-25T03:17:48.780Z,100288.19
2023-07-25T03:20:15.876Z,100283.66
2023-07-25T03:22:43.068Z,100285.81
2023-07-25T03:25:10.481Z,100278.59
2023-07-25T03:27:37.956Z,100273.06
2023-07-25T03:30:05.908Z,100282.00
2023-07-25T03:32:32.862Z,100283.06
2023-07-25T03:34:59.945Z,100285.81
2023-07-25T03:37:26.882Z,100274.72
2023-07-25T03:39:54.472Z,100278.59
2023-07-25T03:42:21.423Z,100278.59
2023-07-25T03:44:48.701Z,100273.06
2023-07-25T03:47:15.591Z,100267.50
2023-07-25T03:49:42.491Z,100273.06
2023-07-25T03:52:10.557Z,100273.06
2023-07-25T03:54:37.603Z,100265.81
2023-07-25T03:57:05.319Z,100263.66
2023-07-25T03:59:32.312Z,100261.97
2023-07-25T04:01:59.281Z,100262.41
2023-07-25T04:04:26.462Z,100271.34
2023-07-25T04:06:53.431Z,100275.22
2023-07-25T04:09:20.412Z,100264.13
2023-07-25T04:11:47.340Z,100259.66
2023-07-25T04:14:14.345Z,100264.59
2023-07-25T04:16:41.307Z,100273.72
2023-07-25T04:19:08.253Z,100271.84
2023-07-25T04:21:35.243Z,100264.59
2023-07-25T04:24:02.198Z,100273.50
2023-07-25T04:26:29.123Z,100271.84
2023-07-25T04:28:56.040Z,100269.28
2023-07-25T04:31:22.933Z,100269.28
2023-07-25T04:33:50.026Z,100273.97
2023-07-25T04:36:17.013Z,100273.97
2023-07-25T04:38:43.970Z,100280.59
2023-07-25T04:41:11.363Z,100276.72
2023-07-25T04:43:38.231Z,100268.91
2023-07-25T04:46:05.155Z,100285.03
2023-07-25T04:48:32.369Z,100287.19
2023-07-25T04:50:59.257Z,100280.59
2023-07-25T04:53:27.026Z,100286.16
2023-07-25T04:55:53.921Z,100287.19
2023-07-25T04:58:20.831Z,100288.91
2023-07-25T05:00:48.462Z,100289.97
2023-07-25T05:03:17.520Z,100287.19
2023-07-25T05:05:44.471Z,100285.03
2023-07-25T05:08:11.545Z,100282.53
2023-07-25T05:10:38.492Z,100272.72
2023-07-25T05:13:05.391Z,100279.50
2023-07-25T05:15:32.267Z,100279.50
2023-07-25T05:17:59.208Z,100285.91
2023-07-25T05:20:26.218Z,100292.31
2023-07-25T05:22:53.089Z,100285.91
2023-07-25T05:25:20.152Z,100286.75
2023-07-25T05:27:47.097Z,100284.81
2023-07-25T05:30:14.072Z,100285.91
2023-07-25T05:32:41.409Z,100285.69
2023-07-25T05:35:08.466Z,100281.81
2023-07-25T05:37:40.522Z,100284.16
2023-07-25T05:40:08.169Z,100284.59
2023-07-25T05:42:35.333Z,100285.91
2023-07-25T05:45:02.365Z,100284.03
2023-07-25T05:47:30.056Z,100290.50
2023-07-25T05:49:58.382Z,100296.72
2023-07-25T05:52:25.334Z,100296.34
2023-07-25T05:54:53.213Z,100302.34
2023-07-25T05:57:21.171Z,100300.88
2023-07-25T05:59:48.132Z,100305.78
2023-07-25T06:02:15.249Z,100305.78
2023-07-25T06:04:44.127Z,100307.09
2023-07-25T06:07:10.952Z,100312.88
2023-07-25T06:09:37.909Z,100306.94
2023-07-25T06:12:05.356Z,100309.69
2023-07-25T06:14:32.441Z,100315.69
2023-07-25T06:16:59.411Z,100316.56
2023-07-25T06:19:26.298Z,100311.00
2023-07-25T06:21:53.287Z,100307.63
2023-07-25T06:24:20.500Z,100305.91
2023-07-25T06:26:47.680Z,100304.22
2023-07-25T06:29:14.621Z,100300.81
2023-07-25T06:31:41.717Z,100289.75
2023-07-25T06:34:08.633Z,100292.50
2023-07-25T06:36:35.627Z,100298.91
2023-07-25T06:39:03.843Z,100299.75
2023-07-25T06:41:31.013Z,100309.34
2023-07-25T06:44:02.895Z,100311.28
2023-07-25T06:46:30.038Z,100307.28
2023-07-25T06:48:57.165Z,100317.91
2023-07-25T06:51:24.040Z,100322.84
2023-07-25T06:53:50.953Z,100317.91
2023-07-25T06:56:17.876Z,100308.50
2023-07-25T06:58:45.892Z,100321.31
2023-07-25T07:01:12.813Z,100320.22
2023-07-25T07:03:39.758Z,100318.31
2023-07-25T07:06:06.732Z,100324.69
2023-07-25T07:08:33.618Z,100320.81
2023-07-25T07:11:00.511Z,100320.81
2023-07-25T07:13:28.859Z,100318.72
2023-07-25T07:15:55.826Z,100322.09
2023-07-25T07:18:22.854Z,100326.53
2023-07-25T07:20:50.494Z,100322.72
2023-07-25T07:23:18.141Z,100323.34
2023-07-25T07:25:46.248Z,100320.56
2023-07-25T07:28:14.129Z,100325.00
2023-07-25T07:30:41.355Z,100333.97
2023-07-25T07:33:08.641Z,100332.88
2023-07-25T07:35:35.585Z,100332.66
2023-07-25T07:38:02.502Z,100333.50
2023-07-25T07:40:29.893Z,100329.03
2023-07-25T07:42:56.875Z,100335.22
2023-07-25T07:45:25.080Z,100340.31
2023-07-25T07:47:52.977Z,100349.69
2023-07-25T07:50:20.949Z,100349.69
2023-07-25T07:52:47.995Z,100352.22
2023-07-25T07:55:16.591Z,100341.97
2023-07-25T07:57:47.280Z,100353.84
2023-07-25T08:00:16.779Z,100351.69
2023-07-25T08:02:46.100Z,100356.81
2023-07-25T08:05:14.227Z,100359.75
2023-07-25T08:07:41.669Z,100364.81
2023-07-25T08:10:09.361Z,100369.91
2023-07-25T08:12:36.321Z,100373.06
2023-07-25T08:15:04.090Z,100370.91
2023-07-25T08:17:31.036Z,100371.53
2023-07-25T08:19:58.123Z,100370.69
2023-07-25T08:22:25.032Z,100377.50
2023-07-25T08:24:56.813Z,100371.50
2023-07-25T08:27:23.917Z,100387.06
2023-07-25T08:29:51.066Z,100379.59
2023-07-25T08:32:18.173Z,100372.75
2023-07-25T08:34:45.051Z,100378.28
2023-07-25T08:37:13.158Z,100378.69
2023-07-25T08:39:40.058Z,100380.38
2023-07-25T08:42:08.292Z,100377.38
2023-07-25T08:44:38.867Z,100389.09
2023-07-25T08:47:16.821Z,100386.00
2023-07-25T08:49:49.077Z,100384.94
2023-07-25T08:52:20.307Z,100391.34
2023-07-25T08:54:50.641Z,100388.56
2023-07-25T08:57:19.928Z,100388.78
2023-07-25T08:59:51.601Z,100398.94
2023-07-25T09:02:18.631Z,100397.50
2023-07-25T09:04:47.439Z,100397.72
2023-07-25T09:07:14.839Z,100406.66
2023-07-25T09:09:41.660Z,100402.22
2023-07-25T09:12:09.326Z,100403.03
2023-07-25T09:14:40.845Z,100400.28
2023-07-25T09:17:08.098Z,100400.38
2023-07-25T09:19:35.049Z,100404.97
2023-07-25T09:22:02.434Z,100412.34
2023-07-25T09:24:38.036Z,100400.88
2023-07-25T09:27:19.038Z,100396.91
2023-07-25T09:29:47.789Z,100401.41
2023-07-25T09:32:28.955Z,100395.72
2023-07-25T09:35:02.675Z,100411.56
2023-07-25T09:37:30.178Z,100407.72
2023-07-25T09:39:58.377Z,100407.03
2023-07-25T09:42:26.903Z,100402.97
2023-07-25T09:44:55.045Z,100408.66
2023-07-25T09:47:27.589Z,100410.03
2023-07-25T09:49:57.564Z,100411.13
2023-07-25T09:52:24.842Z,100410.91
2023-07-25T09:54:52.258Z,100406.22
2023-07-25T09:57:20.091Z,100417.31
2023-07-25T09:59:50.751Z,100415.75
2023-07-25T10:02:18.175Z,100424.06
2023-07-25T10:04:47.546Z,100421.91
2023-07-25T10:07:15.930Z,100409.97
2023-07-25T10:09:46.570Z,100412.53
2023-07-25T10:12:13.674Z,100413.75
2023-07-25T10:14:40.748Z,100401.81
2023-07-25T10:17:09.188Z,100406.06
2023-07-25T10:19:54.192Z,100400.59
2023-07-25T10:22:39.493Z,100404.59
2023-07-25T10:25:13.804Z,100411.09
2023-07-25T10:27:40.822Z,100414.53
2023-07-25T10:30:23.282Z,100421.06
2023-07-25T10:32:55.149Z,100415.38
2023-07-25T10:35:54.113Z,100415.28
2023-07-25T10:38:42.346Z,100414.88
2023-07-25T10:41:12.341Z,100417.09
2023-07-25T10:43:54.623Z,100418.69
2023-07-25T10:46:26.907Z,100416.25
2023-07-25T10:48:56.692Z,100413.47
2023-07-25T10:51:24.442Z,100414.53
2023-07-25T10:54:09.280Z,100408.22
2023-07-25T10:56:38.779Z,100404.66
2023-07-25T10:59:15.478Z,100400.97
2023-07-25T11:01:48.257Z,100398.06
2023-07-25T11:04:33.280Z,100402.84
2023-07-25T11:07:13.982Z,100399.72
2023-07-25T11:09:45.615Z,100405.44
2023-07-25T11:12:13.347Z,100399.13
2023-07-25T11:14:45.925Z,100407.38
2023-07-25T11:17:14.158Z,100401.44
2023-07-25T11:19:41.436Z,100405.06
2023-07-25T11:22:13.100Z,100404.41
2023-07-25T11:24:48.794Z,100402.41
2023-07-25T11:27:16.137Z,100397.75
2023-07-25T11:29:43.172Z,100397.75
2023-07-25T11:32:10.267Z,100401.16
2023-07-25T11:34:37.311Z,100398.16
2023-07-25T11:37:13.569Z,100407.63
2023-07-25T11:39:40.692Z,100405.78
2023-07-25T11:42:09.561Z,100410.50
2023-07-25T11:44:37.482Z,100406.41
2023-07-25T11:47:05.753Z,100403.63
2023-07-25T11:49:49.678Z,100406.41
2023-07-25T11:52:19.633Z,100408.72
2023-07-25T11:54:46.892Z,100409.34
2023-07-25T11:57:13.950Z,100416.19
2023-07-25T11:59:42.309Z,100423.22
2023-07-25T12:02:09.876Z,100415.09
2023-07-25T12:04:45.116Z,100406.06
2023-07-25T12:07:14.630Z,100410.41
2023-07-25T12:09:54.165Z,100412.25
2023-07-25T12:12:21.985Z,100410.41
2023-07-25T12:15:02.047Z,100415.66
2023-07-25T12:17:43.066Z,100409.47
2023-07-25T12:20:21.305Z,100416.09
2023-07-25T12:22:48.618Z,100411.34
2023-07-25T12:25:19.900Z,100412.56
2023-07-25T12:27:49.714Z,100412.41
2023-07-25T12:30:17.177Z,100410.50
2023-07-25T12:32:44.544Z,100413.28
2023-07-25T12:35:12.569Z,100416.66
2023-07-25T12:37:39.502Z,100424.75
2023-07-25T12:40:07.335Z,100416.44
2023-07-25T12:42:34.350Z,100420.66
2023-07-25T12:45:08.529Z,100412.56
2023-07-25T12:47:37.793Z,100414.88
2023-07-25T12:50:05.552Z,100421.50
2023-07-25T12:52:32.436Z,100428.75
2023-07-25T12:54:59.423Z,100428.75
2023-07-25T12:57:26.311Z,100428.75
2023-07-25T12:59:53.279Z,100425.75
2023-07-25T13:02:20.283Z,100432.16
2023-07-25T13:04:47.310Z,100428.75
2023-07-25T13:07:15.525Z,100444.09
2023-07-25T13:09:42.678Z,100437.69
2023-07-25T13:12:10.063Z,100427.44
2023-07-25T13:14:37.096Z,100437.69
2023-07-25T13:17:04.298Z,100432.16
2023-07-25T13:19:31.216Z,100433.22
2023-07-25T13:21:58.118Z,100442.16
2023-07-25T13:24:25.113Z,100433.81
2023-07-25T13:26:52.080Z,100436.59
2023-07-25T13:29:19.052Z,100439.38
2023-07-25T13:31:46.188Z,100426.59
2023-07-25T13:34:14.070Z,100434.91
2023-07-25T13:36:41.006Z,100428.28
2023-07-25T13:39:08.554Z,100438.31
2023-07-25T13:41:35.636Z,100437.69
2023-07-25T13:44:02.590Z,100451.34
2023-07-25T13:46:29.594Z,100443.25
2023-07-25T13:48:56.526Z,100448.81
2023-07-25T13:51:23.647Z,100445.41
2023-07-25T13:53:50.593Z,100464.22
2023-07-25T13:56:17.507Z,100474.72
2023-07-25T13:58:47.135Z,100473.63
2023-07-25T14:01:14.895Z,100473.63
2023-07-25T14:03:42.061Z,100480.88
2023-07-25T14:06:09.118Z,100482.56
2023-07-25T14:08:36.103Z,100477.00
2023-07-25T14:11:03.058Z,100469.78
2023-07-25T14:13:30.112Z,100466.75
2023-07-25T14:15:57.170Z,100467.63
2023-07-25T14:18:24.219Z,100465.47
2023-07-25T14:20:51.154Z,100465.47
2023-07-25T14:23:18.579Z,100476.56
2023-07-25T14:25:45.494Z,100476.56
2023-07-25T14:28:12.503Z,100485.94
2023-07-25T14:30:39.459Z,100487.66
2023-07-25T14:33:06.480Z,100493.22
2023-07-25T14:35:33.421Z,100485.94
2023-07-25T14:38:02.051Z,100493.22
2023-07-25T14:40:29.303Z,100493.22
2023-07-25T14:42:56.335Z,100495.16
2023-07-25T14:45:23.289Z,100494.91
2023-07-25T14:47:51.187Z,100506.00
2023-07-25T14:50:18.302Z,100506.00
2023-07-25T14:52:45.314Z,100507.94
2023-07-25T14:55:12.470Z,100510.47
2023-07-25T14:57:40.028Z,100510.25
2023-07-25T15:00:10.885Z,100514.50
2023-07-25T15:02:39.021Z,100505.53
2023-07-25T15:05:07.433Z,100506.66
2023-07-25T15:07:35.293Z,100511.09
2023-07-25T15:10:03.030Z,100521.13
2023-07-25T15:12:30.186Z,100515.81
2023-07-25T15:14:57.129Z,100512.81
2023-07-25T15:17:26.146Z,100519.44
2023-07-25T15:20:00.487Z,100512.94
2023-07-25T15:22:28.407Z,100522.19
2023-07-25T15:24:55.910Z,100514.50
2023-07-25T15:27:23.287Z,100518.38
2023-07-25T15:29:51.604Z,100523.91
2023-07-25T15:32:18.578Z,100523.91
2023-07-25T15:34:46.121Z,100528.38
2023-07-25T15:37:13.790Z,100529.47
2023-07-25T15:39:40.767Z,100523.91
2023-07-25T15:42:07.872Z,100524.97
2023-07-25T15:44:34.766Z,100531.16
2023-07-25T15:47:05.432Z,100532.84
2023-07-25T15:49:32.487Z,100533.09
2023-07-25T15:51:59.458Z,100524.75
2023-07-25T15:54:28.380Z,100523.91
2023-07-25T15:56:55.352Z,100528.97
2023-07-25T15:59:23.572Z,100528.97
2023-07-25T16:01:53.387Z,100529.47
2023-07-25T16:04:21.400Z,100520.03
2023-07-25T16:06:48.448Z,100525.59
2023-07-25T16:09:15.398Z,100528.38
2023-07-25T16:11:42.384Z,100534.53
2023-07-25T16:14:09.363Z,100528.97
2023-07-25T16:16:37.149Z,100528.16
2023-07-25T16:19:04.027Z,100523.44
2023-07-25T16:21:33.285Z,100532.84
2023-07-25T16:24:00.745Z,100531.53
2023-07-25T16:26:28.072Z,100526.22
2023-07-25T16:28:54.997Z,100530.69
2023-07-25T16:33:51.814Z,100529.59
2023-07-25T16:36:18.767Z,100526.81
2023-07-25T16:38:45.994Z,100528.75
2023-07-25T16:41:13.240Z,100533.25
2023-07-25T16:43:40.115Z,100536.25
2023-07-25T16:46:07.062Z,100539.03
2023-07-25T16:48:34.027Z,100533.47
2023-07-25T16:51:00.918Z,100537.94
2023-07-25T16:53:27.841Z,100533.25
2023-07-25T16:55:54.916Z,100538.81
2023-07-25T16:58:21.777Z,100550.75
2023-07-25T17:00:52.119Z,100549.91
2023-07-25T17:03:19.530Z,100549.91
2023-07-25T17:05:46.556Z,100551.81
2023-07-25T17:08:13.717Z,100556.28
2023-07-25T17:10:40.671Z,100556.28
2023-07-25T17:13:07.700Z,100560.13
2023-07-25T17:15:34.729Z,100558.47
2023-07-25T17:18:01.666Z,100559.31
2023-07-25T17:20:28.706Z,100564.84
2023-07-25T17:22:56.791Z,100555.69
2023-07-25T17:25:23.974Z,100572.56
2023-07-25T17:27:53.157Z,100569.56
2023-07-25T17:30:21.741Z,100574.03
2023-07-25T17:32:48.775Z,100571.25
2023-07-25T17:35:23.923Z,100571.25
2023-07-25T17:37:58.827Z,100572.13
2023-07-25T17:40:26.114Z,100576.78
2023-07-25T17:42:53.268Z,100580.66
2023-07-25T17:45:20.403Z,100580.22
2023-07-25T17:47:47.345Z,100580.22
2023-07-25T17:50:14.560Z,100591.31
2023-07-25T17:52:41.501Z,100590.44
2023-07-25T17:55:08.708Z,100593.00
2023-07-25T17:57:35.674Z,100597.50
2023-07-25T18:00:02.705Z,100599.41
2023-07-25T18:02:39.610Z,100604.94
2023-07-25T18:05:07.082Z,100601.34
2023-07-25T18:07:33.996Z,100602.44
2023-07-25T18:10:00.937Z,100609.66
2023-07-25T18:12:27.897Z,100607.13
2023-07-25T18:14:54.827Z,100608.81
2023-07-25T18:17:22.454Z,100610.50
2023-07-25T18:19:49.476Z,100611.38
2023-07-25T18:22:16.351Z,100617.78
2023-07-25T18:24:43.473Z,100625.25
2023-07-25T18:27:10.483Z,100617.38
2023-07-25T18:29:37.435Z,100626.31
2023-07-25T18:32:05.017Z,100626.31
2023-07-25T18:34:32.263Z,100626.31
2023-07-25T18:36:59.206Z,100625.25
2023-07-25T18:39:26.171Z,100633.59
2023-07-25T18:41:53.015Z,100633.59
2023-07-25T18:44:20.023Z,100637.44
2023-07-25T18:46:47.045Z,100640.81
2023-07-25T18:49:14.071Z,100650.25
2023-07-25T18:51:41.011Z,100644.69
2023-07-25T18:54:08.017Z,100650.69
2023-07-25T18:56:34.915Z,100651.31
2023-07-25T18:59:02.654Z,100655.81
2023-07-25T19:01:29.742Z,100654.09
2023-07-25T19:03:58.425Z,100660.47
2023-07-25T19:06:25.876Z,100659.88
2023-07-25T19:08:54.428Z,100665.19
2023-07-25T19:11:21.319Z,100666.28
2023-07-25T19:13:48.220Z,100674.63
2023-07-25T19:16:15.309Z,100680.16
2023-07-25T19:18:43.320Z,100674.63
2023-07-25T19:21:10.353Z,100685.72
2023-07-25T19:23:37.366Z,100680.16
2023-07-25T19:26:04.736Z,100675.91
2023-07-25T19:28:31.842Z,100674.63
2023-07-25T19:30:59.659Z,100680.16
2023-07-25T19:33:28.811Z,100687.41
2023-07-25T19:35:58.876Z,100686.34
2023-07-25T19:38:28.657Z,100689.13
2023-07-25T19:40:56.218Z,100691.03
2023-07-25T19:43:23.437Z,100688.91
2023-07-25T19:45:54.492Z,100696.34
2023-07-25T19:48:21.368Z,100698.06
2023-07-25T19:50:48.534Z,100698.50
2023-07-25T19:53:16.971Z,100704.06
2023-07-25T19:55:44.264Z,100704.06
2023-07-25T19:58:11.228Z,100707.06
2023-07-25T20:00:38.493Z,100707.94
2023-07-25T20:03:05.920Z,100707.94
2023-07-25T20:05:33.106Z,100714.34
2023-07-25T20:08:00.154Z,100719.03
2023-07-25T20:10:27.177Z,100719.03
2023-07-25T20:12:54.263Z,100718.41
2023-07-25T20:15:21.374Z,100723.72
2023-07-25T20:17:49.056Z,100723.94
2023-07-25T20:20:16.364Z,100721.16
2023-07-25T20:22:43.409Z,100720.56
2023-07-25T20:25:16.006Z,100725.03
2023-07-25T20:27:43.089Z,100736.16
2023-07-25T20:30:10.846Z,100737.69
2023-07-25T20:32:37.863Z,100742.75
2023-07-25T20:35:05.633Z,100743.84
2023-07-25T20:37:32.528Z,100743.22
2023-07-25T20:39:59.509Z,100750.69
2023-07-25T20:42:26.708Z,100752.63
2023-07-25T20:44:53.618Z,100756.25
2023-07-25T20:47:20.578Z,100760.13
2023-07-25T20:49:47.579Z,100754.78
2023-07-25T20:52:14.485Z,100759.28
2023-07-25T20:54:41.368Z,100758.41
2023-07-25T20:57:08.295Z,100756.72
2023-07-25T20:59:35.231Z,100758.00
2023-07-25T21:02:02.139Z,100756.94
2023-07-25T21:04:29.346Z,100762.47
2023-07-25T21:06:56.702Z,100758.88
2023-07-25T21:09:24.295Z,100758.63
2023-07-25T21:11:51.275Z,100756.31
2023-07-25T21:14:18.498Z,100752.44
2023-07-25T21:16:45.506Z,100762.47
2023-07-25T21:19:12.562Z,100752.91
2023-07-25T21:21:39.783Z,100754.59
2023-07-25T21:24:07.132Z,100756.31
2023-07-25T21:26:34.297Z,100762.72
2023-07-25T21:29:01.572Z,100765.69
2023-07-25T21:31:28.478Z,100767.41
2023-07-25T21:33:58.593Z,100769.31
2023-07-25T21:36:26.778Z,100769.31
2023-07-25T21:38:55.835Z,100767.41
2023-07-25T21:41:24.305Z,100766.78
2023-07-25T21:43:51.603Z,100768.94
2023-07-25T21:46:18.599Z,100764.47
2023-07-25T21:48:46.464Z,100770.44
2023-07-25T21:51:14.257Z,100766.22
2023-07-25T21:53:42.864Z,100772.59
2023-07-25T21:56:09.878Z,100769.19
2023-07-25T21:58:36.794Z,100765.78
2023-07-25T22:01:04.280Z,100775.19
2023-07-25T22:03:32.982Z,100779.06
2023-07-25T22:06:00.682Z,100777.31
2023-07-25T22:08:27.741Z,100775.63
2023-07-25T22:10:55.812Z,100773.69
2023-07-25T22:13:24.096Z,100774.97
2023-07-25T22:15:51.498Z,100776.28
2023-07-25T22:18:18.585Z,100776.91
2023-07-25T22:20:51.663Z,100782.44
2023-07-25T22:23:20.803Z,100767.09
2023-07-25T22:25:47.756Z,100769.63
2023-07-25T22:28:14.637Z,100772.19
2023-07-25T22:30:41.607Z,100773.03
2023-07-25T22:33:08.616Z,100767.47
2023-07-25T22:35:36.284Z,100768.34
2023-07-25T22:38:05.368Z,100767.47
2023-07-25T22:40:32.800Z,100773.03
2023-07-25T22:42:59.829Z,100769.19
2023-07-25T22:45:28.335Z,100771.34
2023-07-25T22:47:55.931Z,100765.78
2023-07-25T22:50:23.678Z,100772.19
2023-07-25T22:52:50.794Z,100769.41
2023-07-25T22:55:19.821Z,100771.34
2023-07-25T22:57:46.963Z,100777.97
2023-07-25T23:00:15.011Z,100772.66
2023-07-25T23:02:44.470Z,100766.19
2023-07-25T23:05:11.666Z,100758.97
2023-07-25T23:07:38.625Z,100768.56
2023-07-25T23:10:06.297Z,100765.78
2023-07-25T23:12:33.163Z,100772.22
2023-07-25T23:15:00.062Z,100769.44
2023-07-25T23:17:27.153Z,100766.66
2023-07-25T23:19:54.219Z,100762.19
2023-07-25T23:22:21.105Z,100765.78
2023-07-25T23:24:48.114Z,100764.97
2023-07-25T23:27:15.098Z,100753.84
2023-07-25T23:29:42.163Z,100751.72
2023-07-25T23:32:09.181Z,100758.78
2023-07-25T23:34:51.283Z,100764.72
2023-07-25T23:37:18.341Z,100767.09
2023-07-25T23:39:45.294Z,100770.94
2023-07-25T23:42:12.780Z,100765.84
2023-07-25T23:44:39.907Z,100770.53
2023-07-25T23:47:07.407Z,100762.44
2023-07-25T23:49:34.963Z,100776.31
2023-07-25T23:52:03.893Z,100776.53
2023-07-25T23:54:31.198Z,100782.94
2023-07-25T23:56:58.203Z,100788.50
2023-07-25T23:59:25.301Z,100787.41
